Hauptseite
METAR-TAF:

METAR-TAF

Flughäfen :

Flughafen Hannover-Langenhagen

Hannover, Deutschland

Breite: 52-28N, Länge: 009-41E, Höhe: 56 m

Beobachtung

Neuester Wetterbericht von vor 27 Minuten, um 10:50 UTC
Wind 4 kt aus West/Südwest, variierte zwischen Südwest und West/Nordwest
Temperatur 17°C
Luftfeuchtigkeit 72%
Luftdruck 1023 hPa
Sichtweite 10 km oder mehr
Aufgelockert bewölkt in der Höhe von 1800 ft

METAR: EDDV 281050Z 25004KT 220V300 9999 SCT018 17/12 Q1023 NOSIG

Zeit: 13:17 (11:17 UTC)

Prognose

Neuester Wetterbericht von vor 6 Stunden und 17 Minuten, um 05:00 UTC
Gültige Prognose vom 28 um 06 UTC bis 29 um 06 UTC
Wind 5 kt aus West/Südwest
Sichtweite 10 km oder mehr
keine Wolken unter 1500 m und keine Kumulonimbus oder Gewitterwolken
Übergehend zu
vom 28 um 15 UTC bis 28 um 17 UTC
Wind 4 kt aus Ost/Südost

TAF: EDDV 280500Z 2806/2906 25005KT CAVOK BECMG 2815/2817 11004KT

Wetterbeobachtungen und Prognosen von mehr als 4000 Flughäfen (METAR und TAF Bericht).

Die verfügbaren Stationen werden durch gelbe und rote Markierungen auf der Karte dargestellt.

Führen Sie die Maus auf sie, um den Namen der Station zu sehen.

Darauf klicken, um die Beobachtung von Wetterbeobachtungen und Prognosen zu sehen.

Um die Karte zu ändern : klicken Sie auf den grünen Tasten mit einem schwarzen Kreuz Zum Vergrößern, auf den grünen Button mit einem Gedankenstrich zu verkleinern, oder auf die grünen Pfeile für benachbarte Karten.


METAR-TAF: